createdAt,value
2023-05-03T00:00:30.335Z,3.96
2023-05-03T00:01:30.320Z,3.95
2023-05-03T00:02:30.424Z,3.89
2023-05-03T00:03:30.299Z,3.92
2023-05-03T00:04:30.308Z,3.88
2023-05-03T00:05:30.311Z,3.86
2023-05-03T00:06:30.306Z,3.93
2023-05-03T00:07:30.255Z,3.93
2023-05-03T00:08:30.247Z,3.95
2023-05-03T00:09:30.264Z,3.98
2023-05-03T00:10:30.228Z,4.00
2023-05-03T00:11:30.270Z,4.07
2023-05-03T00:12:30.215Z,4.07
2023-05-03T00:13:30.182Z,4.06
2023-05-03T00:14:30.192Z,4.07
2023-05-03T00:15:30.166Z,4.13
2023-05-03T00:16:30.179Z,4.14
2023-05-03T00:17:30.210Z,4.16
2023-05-03T00:18:30.129Z,4.17
2023-05-03T00:19:31.678Z,4.21
2023-05-03T00:20:30.112Z,4.28
2023-05-03T00:21:30.102Z,4.31
2023-05-03T00:22:30.087Z,4.28
2023-05-03T00:23:30.071Z,4.34
2023-05-03T00:24:30.071Z,4.35
2023-05-03T00:25:30.077Z,4.39
2023-05-03T00:26:30.043Z,4.43
2023-05-03T00:27:30.031Z,4.46
2023-05-03T00:28:30.024Z,4.51
2023-05-03T00:29:30.011Z,4.53
2023-05-03T00:30:30.001Z,4.56
2023-05-03T00:31:30.051Z,4.61
2023-05-03T00:32:30.028Z,4.61
2023-05-03T00:33:29.963Z,4.64
2023-05-03T00:34:29.964Z,4.67
2023-05-03T00:35:29.940Z,4.69
2023-05-03T00:36:29.943Z,4.72
2023-05-03T00:37:29.926Z,4.69
2023-05-03T00:38:29.911Z,4.69
2023-05-03T00:39:29.898Z,4.67
2023-05-03T00:40:29.892Z,4.69
2023-05-03T00:41:29.903Z,4.69
2023-05-03T00:42:29.868Z,4.75
2023-05-03T00:43:29.858Z,4.83
2023-05-03T00:44:29.845Z,4.87
2023-05-03T00:45:29.832Z,4.88
2023-05-03T00:46:29.838Z,4.94
2023-05-03T00:47:29.831Z,4.97
2023-05-03T00:48:29.801Z,4.99
2023-05-03T00:49:29.789Z,5.02
2023-05-03T00:50:29.780Z,5.06
2023-05-03T00:51:29.765Z,5.09
2023-05-03T00:52:29.757Z,5.14
2023-05-03T00:53:29.741Z,5.14
2023-05-03T00:54:29.742Z,5.19
2023-05-03T00:55:29.724Z,5.17
2023-05-03T00:56:32.978Z,5.20
2023-05-03T00:57:30.752Z,5.23
2023-05-03T00:58:29.690Z,5.22
2023-05-03T00:59:29.680Z,5.23
2023-05-03T01:00:29.675Z,5.26
2023-05-03T01:01:29.754Z,5.26
2023-05-03T01:02:29.712Z,5.30
2023-05-03T01:03:29.763Z,5.26
2023-05-03T01:04:29.619Z,5.27
2023-05-03T01:05:29.612Z,5.30
2023-05-03T01:06:29.646Z,5.32
2023-05-03T01:07:29.584Z,5.33
2023-05-03T01:08:29.571Z,5.33
2023-05-03T01:09:29.588Z,5.35
2023-05-03T01:10:29.551Z,5.38
2023-05-03T01:11:29.561Z,5.35
2023-05-03T01:12:29.527Z,5.37
2023-05-03T01:13:29.647Z,5.42
2023-05-03T01:14:29.506Z,5.42
2023-05-03T01:15:29.497Z,5.44
2023-05-03T01:16:29.526Z,5.45
2023-05-03T01:17:29.534Z,5.42
2023-05-03T01:18:29.659Z,5.44
2023-05-03T01:19:29.451Z,5.44
2023-05-03T01:20:29.442Z,5.41
2023-05-03T01:21:29.424Z,5.48
2023-05-03T01:22:29.437Z,5.47
2023-05-03T01:23:29.407Z,5.48
2023-05-03T01:24:29.395Z,5.48
2023-05-03T01:25:29.393Z,5.48
2023-05-03T01:26:29.372Z,5.51
2023-05-03T01:27:29.361Z,5.52
2023-05-03T01:28:29.348Z,5.52
2023-05-03T01:29:29.362Z,5.55
2023-05-03T01:30:29.324Z,5.59
2023-05-03T01:31:29.374Z,5.59
2023-05-03T01:32:29.315Z,5.62
2023-05-03T01:33:29.296Z,5.62
2023-05-03T01:34:29.280Z,5.65
2023-05-03T01:35:29.292Z,5.65
2023-05-03T01:36:29.257Z,5.66
2023-05-03T01:37:29.248Z,5.69
2023-05-03T01:38:29.245Z,5.70
2023-05-03T01:39:29.233Z,5.73
2023-05-03T01:40:29.220Z,5.73
2023-05-03T01:41:29.212Z,5.73
2023-05-03T01:42:29.196Z,5.74
2023-05-03T01:43:29.182Z,5.75
2023-05-03T01:44:29.184Z,5.70
2023-05-03T01:45:29.242Z,5.75
2023-05-03T01:46:29.170Z,5.77
2023-05-03T01:47:29.172Z,5.75
2023-05-03T01:48:29.133Z,5.80
2023-05-03T01:49:29.116Z,5.83
2023-05-03T01:50:29.102Z,5.85
2023-05-03T01:51:29.098Z,5.87
2023-05-03T01:52:29.090Z,5.90
2023-05-03T01:53:29.080Z,5.95
2023-05-03T01:54:29.070Z,5.98
2023-05-03T01:55:29.051Z,5.98
2023-05-03T01:56:29.036Z,5.99
2023-05-03T01:57:29.028Z,6.01
2023-05-03T01:58:29.025Z,6.01
2023-05-03T01:59:29.003Z,6.01
2023-05-03T02:00:28.995Z,6.01
2023-05-03T02:01:29.039Z,6.02
2023-05-03T02:02:28.998Z,6.03
2023-05-03T02:03:28.971Z,6.02
2023-05-03T02:04:28.991Z,6.03
2023-05-03T02:05:28.940Z,6.03
2023-05-03T02:06:29.004Z,6.05
2023-05-03T02:07:28.925Z,6.10
2023-05-03T02:08:28.905Z,6.10
2023-05-03T02:09:28.899Z,6.11
2023-05-03T02:10:28.888Z,6.10
2023-05-03T02:11:28.879Z,6.11
2023-05-03T02:12:28.862Z,6.10
2023-05-03T02:13:28.848Z,6.11
2023-05-03T02:14:28.841Z,6.11
2023-05-03T02:15:28.828Z,6.13
2023-05-03T02:16:28.871Z,6.14
2023-05-03T02:17:28.861Z,6.14
2023-05-03T02:18:28.791Z,6.14
2023-05-03T02:19:28.792Z,6.17
2023-05-03T02:20:28.774Z,6.19
2023-05-03T02:21:28.766Z,6.17
2023-05-03T02:22:28.750Z,6.16
2023-05-03T02:23:28.942Z,6.14
2023-05-03T02:24:28.725Z,6.16
2023-05-03T02:25:28.758Z,6.13
2023-05-03T02:26:28.701Z,6.10
2023-05-03T02:27:28.730Z,6.11
2023-05-03T02:28:28.680Z,6.11
2023-05-03T02:29:28.671Z,6.13
2023-05-03T02:30:28.664Z,6.13
2023-05-03T02:31:28.674Z,6.14
2023-05-03T02:32:28.656Z,6.19
2023-05-03T02:33:28.662Z,6.19
2023-05-03T02:34:28.620Z,6.20
2023-05-03T02:35:28.618Z,6.25
2023-05-03T02:36:28.592Z,6.27
2023-05-03T02:37:28.582Z,6.30
2023-05-03T02:38:28.574Z,6.28
2023-05-03T02:39:28.556Z,6.28
2023-05-03T02:40:28.547Z,6.28
2023-05-03T02:41:28.539Z,6.25
2023-05-03T02:42:28.527Z,6.21
2023-05-03T02:43:28.528Z,6.21
2023-05-03T02:44:28.503Z,6.20
2023-05-03T02:45:28.490Z,6.20
2023-05-03T02:46:28.553Z,6.20
2023-05-03T02:47:28.484Z,6.20
2023-05-03T02:48:28.455Z,6.20
2023-05-03T02:49:28.468Z,6.25
2023-05-03T02:50:28.438Z,6.24
2023-05-03T02:51:28.427Z,6.25
2023-05-03T02:52:28.407Z,6.27
2023-05-03T02:53:28.406Z,6.27
2023-05-03T02:54:28.387Z,6.25
2023-05-03T02:55:28.381Z,6.28
2023-05-03T02:56:28.364Z,6.30
2023-05-03T02:57:28.361Z,6.28
2023-05-03T02:58:28.367Z,6.27
2023-05-03T02:59:28.334Z,6.27
2023-05-03T03:00:28.322Z,6.28
2023-05-03T03:01:28.361Z,6.27
2023-05-03T03:02:28.373Z,6.28
2023-05-03T03:03:28.368Z,6.32
2023-05-03T03:04:28.292Z,6.32
2023-05-03T03:05:28.290Z,6.33
2023-05-03T03:06:28.322Z,6.36
2023-05-03T03:07:28.246Z,6.38
2023-05-03T03:08:28.235Z,6.39
2023-05-03T03:09:28.226Z,6.42
2023-05-03T03:10:28.216Z,6.45
2023-05-03T03:11:28.205Z,6.45
2023-05-03T03:12:28.188Z,6.45
2023-05-03T03:13:28.179Z,6.48
2023-05-03T03:14:28.167Z,6.46
2023-05-03T03:15:28.157Z,6.46
2023-05-03T03:16:28.189Z,6.46
2023-05-03T03:17:28.161Z,6.46
2023-05-03T03:18:28.121Z,6.43
2023-05-03T03:19:28.120Z,6.43
2023-05-03T03:20:28.109Z,6.42
2023-05-03T03:21:28.111Z,6.42
2023-05-03T03:22:28.079Z,6.40
2023-05-03T03:23:28.064Z,6.40
2023-05-03T03:24:28.057Z,6.38
2023-05-03T03:25:28.048Z,6.35
2023-05-03T03:26:28.030Z,6.36
2023-05-03T03:27:28.018Z,6.36
2023-05-03T03:28:28.020Z,6.36
2023-05-03T03:29:27.999Z,6.36
2023-05-03T03:30:27.991Z,6.33
2023-05-03T03:31:28.067Z,6.33
2023-05-03T03:32:27.962Z,6.32
2023-05-03T03:33:27.958Z,6.33
2023-05-03T03:34:27.948Z,6.32
2023-05-03T03:35:27.940Z,6.30
2023-05-03T03:36:27.958Z,6.30
2023-05-03T03:37:27.947Z,6.28
2023-05-03T03:38:27.898Z,6.27
2023-05-03T03:39:27.893Z,6.21
2023-05-03T03:40:27.873Z,6.19
2023-05-03T03:41:27.879Z,6.19
2023-05-03T03:42:27.860Z,6.14
2023-05-03T03:43:27.857Z,6.10
2023-05-03T03:44:27.944Z,6.08
2023-05-03T03:45:27.868Z,6.05
2023-05-03T03:46:27.847Z,6.02
2023-05-03T03:47:27.847Z,6.01
2023-05-03T03:48:27.895Z,5.96
2023-05-03T03:49:27.795Z,5.95
2023-05-03T03:50:27.764Z,5.93
2023-05-03T03:51:27.757Z,5.88
2023-05-03T03:52:27.740Z,5.88
2023-05-03T03:53:27.862Z,5.87
2023-05-03T03:54:27.735Z,5.85
2023-05-03T03:55:27.709Z,5.83
2023-05-03T03:56:27.799Z,5.87
2023-05-03T03:57:27.687Z,5.85
2023-05-03T03:58:27.674Z,5.83
2023-05-03T03:59:27.815Z,5.83
2023-05-03T04:00:27.652Z,5.87
2023-05-03T04:01:27.655Z,5.87
2023-05-03T04:02:27.725Z,5.87
2023-05-03T04:03:27.711Z,5.88
2023-05-03T04:04:27.632Z,5.88
2023-05-03T04:05:27.600Z,5.88
2023-05-03T04:06:27.618Z,5.90
2023-05-03T04:07:27.699Z,5.93
2023-05-03T04:08:27.572Z,5.93
2023-05-03T04:09:27.585Z,5.96
2023-05-03T04:10:27.545Z,5.96
2023-05-03T04:11:27.543Z,6.01
2023-05-03T04:12:27.537Z,6.01
2023-05-03T04:13:27.517Z,6.03
2023-05-03T04:14:27.501Z,6.02
2023-05-03T04:15:27.499Z,6.06
2023-05-03T04:16:27.513Z,6.11
2023-05-03T04:17:27.479Z,6.11
2023-05-03T04:18:27.451Z,6.14
2023-05-03T04:19:27.444Z,6.14
2023-05-03T04:20:27.431Z,6.17
2023-05-03T04:21:27.421Z,6.19
2023-05-03T04:22:27.410Z,6.19
2023-05-03T04:23:27.407Z,6.21
2023-05-03T04:24:27.393Z,6.27
2023-05-03T04:25:27.402Z,6.30
2023-05-03T04:26:31.431Z,6.32
2023-05-03T04:27:27.362Z,6.33
2023-05-03T04:28:27.339Z,6.38
2023-05-03T04:29:27.331Z,6.39
2023-05-03T04:30:27.318Z,6.40
2023-05-03T04:31:27.352Z,6.42
2023-05-03T04:32:27.327Z,6.42
2023-05-03T04:33:27.293Z,6.43
2023-05-03T04:34:27.284Z,6.43
2023-05-03T04:35:27.276Z,6.43
2023-05-03T04:36:27.251Z,6.45
2023-05-03T04:37:27.241Z,6.51
2023-05-03T04:38:27.227Z,6.54
2023-05-03T04:39:27.217Z,6.55
2023-05-03T04:40:27.311Z,6.58
2023-05-03T04:41:27.220Z,6.63
2023-05-03T04:42:27.183Z,6.63
2023-05-03T04:43:27.177Z,6.68
2023-05-03T04:44:27.170Z,6.73
2023-05-03T04:45:27.149Z,6.76
2023-05-03T04:46:27.143Z,6.78
2023-05-03T04:47:27.145Z,6.81
2023-05-03T04:48:27.124Z,6.86
2023-05-03T04:49:27.118Z,6.87
2023-05-03T04:50:27.096Z,6.91
2023-05-03T04:51:27.085Z,6.96
2023-05-03T04:52:27.073Z,6.97
2023-05-03T04:53:27.059Z,7.01
2023-05-03T04:54:27.054Z,7.07
2023-05-03T04:55:27.042Z,7.08
2023-05-03T04:56:27.030Z,7.12
2023-05-03T04:57:27.044Z,7.14
2023-05-03T04:58:27.000Z,7.16
2023-05-03T04:59:26.998Z,7.18
2023-05-03T05:00:26.996Z,7.21
2023-05-03T05:01:27.001Z,7.27
2023-05-03T05:02:27.095Z,7.30
2023-05-03T05:03:27.017Z,7.34
2023-05-03T05:04:26.933Z,7.42
2023-05-03T05:05:26.960Z,7.47
2023-05-03T05:06:26.943Z,7.50
2023-05-03T05:07:26.926Z,7.54
2023-05-03T05:08:26.951Z,7.62
2023-05-03T05:09:26.882Z,7.63
2023-05-03T05:10:26.875Z,7.69
2023-05-03T05:11:26.856Z,7.73
2023-05-03T05:12:26.844Z,7.73
2023-05-03T05:13:26.862Z,7.76
2023-05-03T05:14:26.821Z,7.77
2023-05-03T05:15:26.810Z,7.81
2023-05-03T05:16:26.853Z,7.86
2023-05-03T05:17:27.104Z,7.85
2023-05-03T05:18:26.802Z,7.88
2023-05-03T05:19:26.766Z,7.92
2023-05-03T05:20:26.752Z,7.94
2023-05-03T05:21:26.742Z,7.96
2023-05-03T05:22:26.733Z,7.99
2023-05-03T05:23:26.718Z,8.04
2023-05-03T05:24:26.725Z,8.06
2023-05-03T05:25:26.701Z,8.07
2023-05-03T05:26:26.685Z,8.09
2023-05-03T05:27:27.114Z,8.14
2023-05-03T05:28:26.699Z,8.20
2023-05-03T05:29:26.854Z,8.22
2023-05-03T05:30:26.639Z,8.25
2023-05-03T05:31:26.656Z,8.31
2023-05-03T05:32:26.617Z,8.34
2023-05-03T05:33:26.670Z,8.37
2023-05-03T05:34:26.598Z,8.43
2023-05-03T05:35:26.584Z,8.46
2023-05-03T05:36:26.572Z,8.52
2023-05-03T05:37:26.567Z,8.61
2023-05-03T05:38:26.551Z,8.64
2023-05-03T05:39:26.546Z,8.64
2023-05-03T05:40:26.532Z,8.67
2023-05-03T05:41:26.536Z,8.73
2023-05-03T05:42:26.512Z,8.78
2023-05-03T05:43:26.498Z,8.80
2023-05-03T05:44:26.482Z,8.83
2023-05-03T05:45:26.505Z,8.86
2023-05-03T05:46:26.515Z,8.93
2023-05-03T05:47:26.696Z,8.97
2023-05-03T05:48:26.446Z,8.97
2023-05-03T05:49:26.429Z,9.01
2023-05-03T05:50:26.423Z,9.08
2023-05-03T05:51:26.430Z,9.13
2023-05-03T05:52:26.415Z,9.15
2023-05-03T05:53:26.384Z,9.19
2023-05-03T05:54:28.499Z,9.24
2023-05-03T05:55:26.357Z,9.31
2023-05-03T05:56:26.366Z,9.34
2023-05-03T05:57:26.337Z,9.32
2023-05-03T05:58:26.332Z,9.38
2023-05-03T05:59:26.314Z,9.42
2023-05-03T06:00:26.318Z,9.48
2023-05-03T06:01:26.365Z,9.53
2023-05-03T06:02:26.318Z,9.56
2023-05-03T06:03:26.324Z,9.62
2023-05-03T06:04:26.266Z,9.71
2023-05-03T06:05:26.336Z,9.63
2023-05-03T06:06:26.266Z,9.58
2023-05-03T06:07:26.228Z,9.62
2023-05-03T06:08:26.226Z,9.70
2023-05-03T06:09:26.206Z,9.75
2023-05-03T06:10:26.192Z,9.86
2023-05-03T06:11:26.184Z,9.85
2023-05-03T06:12:26.174Z,9.81
2023-05-03T06:13:26.167Z,9.88
2023-05-03T06:14:26.158Z,9.95
2023-05-03T06:15:26.146Z,9.99
2023-05-03T06:16:26.172Z,10.04
2023-05-03T06:17:26.274Z,10.07
2023-05-03T06:18:26.104Z,10.13
2023-05-03T06:19:26.098Z,10.13
2023-05-03T06:20:26.086Z,10.17
2023-05-03T06:21:26.082Z,10.06
2023-05-03T06:22:26.065Z,10.09
2023-05-03T06:23:26.049Z,10.09
2023-05-03T06:24:26.041Z,10.06
2023-05-03T06:25:26.023Z,10.04
2023-05-03T06:26:26.020Z,10.16
2023-05-03T06:27:26.006Z,10.17
2023-05-03T06:28:25.998Z,10.22
2023-05-03T06:29:25.985Z,10.29
2023-05-03T06:30:26.002Z,10.38
2023-05-03T06:31:26.046Z,10.52
2023-05-03T06:32:25.968Z,10.63
2023-05-03T06:33:25.958Z,10.65
2023-05-03T06:34:25.926Z,10.70
2023-05-03T06:35:25.912Z,10.78
2023-05-03T06:36:25.901Z,10.86
2023-05-03T06:37:25.889Z,10.90
2023-05-03T06:38:25.883Z,10.93
2023-05-03T06:39:25.872Z,10.95
2023-05-03T06:40:25.862Z,10.95
2023-05-03T06:41:25.846Z,10.93
2023-05-03T06:42:25.879Z,10.86
2023-05-03T06:43:25.842Z,10.86
2023-05-03T06:44:25.815Z,10.88
2023-05-03T06:45:25.807Z,10.98
2023-05-03T06:46:25.857Z,11.02
2023-05-03T06:47:25.834Z,11.02
2023-05-03T06:48:25.950Z,11.01
2023-05-03T06:49:25.854Z,10.99
2023-05-03T06:50:25.858Z,10.99
2023-05-03T06:51:25.874Z,10.81
2023-05-03T06:52:25.861Z,10.73
2023-05-03T06:53:25.894Z,10.76
2023-05-03T06:54:25.784Z,10.83
2023-05-03T06:55:25.697Z,10.80
2023-05-03T06:56:25.684Z,10.81
2023-05-03T06:57:27.060Z,10.84
2023-05-03T06:58:25.658Z,10.90
2023-05-03T06:59:25.648Z,11.01
2023-05-03T07:00:25.638Z,11.11
2023-05-03T07:01:25.693Z,11.17
2023-05-03T07:02:25.744Z,11.21
2023-05-03T07:03:25.666Z,11.23
2023-05-03T07:04:25.610Z,11.19
2023-05-03T07:05:25.682Z,11.19
2023-05-03T07:06:25.601Z,11.20
2023-05-03T07:07:25.595Z,11.21
2023-05-03T07:08:25.552Z,11.23
2023-05-03T07:09:39.287Z,11.23
2023-05-03T07:10:26.592Z,11.28
2023-05-03T07:11:25.511Z,11.35
2023-05-03T07:12:25.503Z,11.27
2023-05-03T07:13:25.506Z,11.31
2023-05-03T07:14:25.478Z,11.36
2023-05-03T07:15:25.466Z,11.31
2023-05-03T07:16:25.508Z,11.39
2023-05-03T07:17:25.496Z,11.41
2023-05-03T07:18:25.443Z,11.51
2023-05-03T07:19:25.421Z,11.45
2023-05-03T07:20:25.444Z,11.44
2023-05-03T07:21:25.419Z,11.51
2023-05-03T07:22:25.445Z,11.41
2023-05-03T07:23:25.377Z,11.45
2023-05-03T07:24:25.372Z,11.56
2023-05-03T07:25:25.418Z,11.66
2023-05-03T07:26:25.340Z,11.69
2023-05-03T07:27:25.327Z,11.70
2023-05-03T07:28:25.318Z,11.72
2023-05-03T07:29:25.304Z,11.66
2023-05-03T07:30:25.404Z,11.57
2023-05-03T07:31:25.296Z,11.59
2023-05-03T07:32:25.341Z,11.67
2023-05-03T07:33:25.378Z,11.70
2023-05-03T07:34:25.256Z,11.72
2023-05-03T07:35:25.250Z,11.70
2023-05-03T07:36:25.238Z,11.75
2023-05-03T07:37:25.370Z,11.82
2023-05-03T07:38:25.212Z,11.90
2023-05-03T07:39:25.204Z,12.07
2023-05-03T07:40:25.205Z,12.18
2023-05-03T07:41:25.180Z,12.25
2023-05-03T07:42:25.160Z,12.37
2023-05-03T07:43:25.172Z,12.48
2023-05-03T07:44:25.141Z,12.56
2023-05-03T07:45:25.135Z,12.70
2023-05-03T07:46:25.206Z,12.52
2023-05-03T07:47:25.108Z,12.26
2023-05-03T07:48:25.099Z,12.26
2023-05-03T07:49:25.078Z,12.18
2023-05-03T07:50:25.097Z,12.21
2023-05-03T07:51:25.058Z,12.36
2023-05-03T07:52:25.060Z,12.43
2023-05-03T07:53:25.165Z,12.51
2023-05-03T07:54:25.030Z,12.54
2023-05-03T07:55:25.015Z,12.58
2023-05-03T07:56:25.005Z,12.62
2023-05-03T07:57:24.992Z,12.74
2023-05-03T07:58:38.735Z,12.70
2023-05-03T07:59:25.996Z,12.59
2023-05-03T08:00:24.958Z,12.54
2023-05-03T08:01:24.943Z,12.58
2023-05-03T08:02:25.083Z,12.56
2023-05-03T08:03:25.121Z,12.33
2023-05-03T08:04:25.350Z,12.22
2023-05-03T08:05:25.050Z,12.21
2023-05-03T08:06:24.919Z,12.30
2023-05-03T08:07:24.879Z,12.44
2023-05-03T08:08:24.871Z,12.52
2023-05-03T08:09:24.894Z,12.66
2023-05-03T08:10:24.845Z,12.87
2023-05-03T08:11:24.835Z,12.96
2023-05-03T08:12:24.822Z,13.27
2023-05-03T08:13:24.830Z,13.41
2023-05-03T08:14:24.807Z,14.09
2023-05-03T08:15:24.795Z,14.39
2023-05-03T08:16:24.899Z,14.80
2023-05-03T08:17:24.768Z,14.72
2023-05-03T08:18:24.758Z,14.30
2023-05-03T08:19:24.744Z,13.72
2023-05-03T08:20:24.734Z,13.31
2023-05-03T08:21:24.806Z,13.29
2023-05-03T08:22:24.714Z,13.46
2023-05-03T08:23:24.706Z,13.38
2023-05-03T08:24:24.688Z,13.44
2023-05-03T08:25:24.702Z,13.36
2023-05-03T08:26:24.678Z,13.50
2023-05-03T08:27:24.675Z,13.65
2023-05-03T08:28:24.682Z,13.75
2023-05-03T08:29:27.025Z,13.80
2023-05-03T08:30:24.624Z,13.80
2023-05-03T08:31:24.676Z,13.62
2023-05-03T08:32:24.635Z,13.29
2023-05-03T08:33:24.599Z,12.92
2023-05-03T08:34:24.581Z,12.99
2023-05-03T08:35:24.560Z,13.04
2023-05-03T08:36:24.557Z,13.07
2023-05-03T08:37:24.557Z,13.14
2023-05-03T08:38:24.541Z,13.24
2023-05-03T08:39:24.534Z,13.35
2023-05-03T08:40:24.563Z,13.21
2023-05-03T08:41:24.551Z,13.27
2023-05-03T08:42:25.726Z,13.39
2023-05-03T08:43:24.474Z,13.43
2023-05-03T08:44:24.461Z,13.48
2023-05-03T08:45:24.452Z,13.62
2023-05-03T08:46:24.475Z,13.69
2023-05-03T08:47:24.470Z,13.84
2023-05-03T08:48:24.440Z,13.90
2023-05-03T08:49:24.420Z,13.90
2023-05-03T08:50:24.428Z,13.87
2023-05-03T08:51:24.474Z,13.91
2023-05-03T08:52:24.424Z,13.88
2023-05-03T08:53:24.365Z,13.76
2023-05-03T08:54:24.360Z,13.65
2023-05-03T08:55:24.346Z,13.53
2023-05-03T08:56:24.350Z,13.55
2023-05-03T08:57:24.399Z,13.59
2023-05-03T08:58:24.310Z,13.71
2023-05-03T08:59:24.299Z,13.66
2023-05-03T09:00:24.288Z,13.75
2023-05-03T09:01:24.325Z,13.94
2023-05-03T09:02:24.372Z,14.05
2023-05-03T09:03:24.372Z,14.20
2023-05-03T09:04:24.478Z,14.23
2023-05-03T09:05:24.237Z,14.08
2023-05-03T09:06:24.235Z,14.19
2023-05-03T09:07:24.206Z,14.38
2023-05-03T09:08:24.192Z,14.87
2023-05-03T09:09:24.187Z,16.11
2023-05-03T09:10:24.192Z,17.30
2023-05-03T09:11:24.163Z,17.99
2023-05-03T09:12:24.147Z,18.53
2023-05-03T09:13:24.177Z,18.09
2023-05-03T09:14:24.126Z,17.73
2023-05-03T09:15:24.116Z,17.39
2023-05-03T09:16:24.128Z,17.03
2023-05-03T09:17:24.092Z,16.66
2023-05-03T09:18:24.089Z,16.33
2023-05-03T09:19:24.093Z,16.10
2023-05-03T09:20:24.102Z,15.59
2023-05-03T09:21:24.056Z,15.19
2023-05-03T09:22:24.070Z,15.27
2023-05-03T09:23:24.033Z,15.46
2023-05-03T09:24:24.037Z,15.25
2023-05-03T09:25:24.007Z,15.95
2023-05-03T09:26:23.998Z,16.47
2023-05-03T09:27:23.984Z,16.55
2023-05-03T09:28:24.147Z,16.59
2023-05-03T09:29:23.995Z,16.78
2023-05-03T09:30:23.951Z,16.92
2023-05-03T09:31:24.051Z,16.60
2023-05-03T09:32:23.994Z,16.27
2023-05-03T09:33:23.915Z,16.11
2023-05-03T09:34:23.907Z,16.14
2023-05-03T09:35:23.895Z,16.50
2023-05-03T09:36:23.882Z,17.07
2023-05-03T09:37:24.116Z,18.20
2023-05-03T09:38:23.858Z,18.71
2023-05-03T09:39:23.849Z,18.71
2023-05-03T09:40:23.835Z,18.57
2023-05-03T09:41:23.826Z,18.04
2023-05-03T09:42:23.817Z,17.43
2023-05-03T09:43:23.805Z,16.90
2023-05-03T09:44:23.793Z,16.42
2023-05-03T09:45:23.898Z,16.29
2023-05-03T09:46:23.807Z,16.78
2023-05-03T09:47:23.802Z,15.98
2023-05-03T09:48:23.992Z,15.85
2023-05-03T09:49:23.745Z,15.66
2023-05-03T09:50:23.723Z,15.33
2023-05-03T09:51:23.826Z,15.19
2023-05-03T09:52:23.721Z,15.27
2023-05-03T09:53:23.701Z,15.46
2023-05-03T09:54:24.354Z,15.51
2023-05-03T09:55:23.678Z,15.62
2023-05-03T09:56:23.667Z,15.56
2023-05-03T09:57:23.656Z,15.60
2023-05-03T09:58:23.654Z,15.78
2023-05-03T09:59:23.626Z,15.86
2023-05-03T10:00:23.614Z,15.93
2023-05-03T10:01:23.701Z,15.91
2023-05-03T10:02:23.609Z,15.92
2023-05-03T10:03:23.599Z,16.13
2023-05-03T10:04:23.598Z,16.17
2023-05-03T10:05:23.565Z,16.07
2023-05-03T10:06:23.605Z,16.06
2023-05-03T10:07:23.551Z,16.13
2023-05-03T10:08:23.525Z,16.51
2023-05-03T10:09:23.517Z,16.55
2023-05-03T10:10:23.521Z,16.48
2023-05-03T10:11:23.495Z,16.50
2023-05-03T10:12:23.489Z,16.59
2023-05-03T10:13:23.489Z,16.18
2023-05-03T10:14:23.462Z,15.99
2023-05-03T10:15:23.451Z,16.07
2023-05-03T10:16:23.520Z,15.99
2023-05-03T10:17:31.979Z,15.92
2023-05-03T10:18:24.468Z,16.17
2023-05-03T10:19:23.625Z,16.08
2023-05-03T10:20:23.395Z,15.98
2023-05-03T10:21:23.391Z,15.99
2023-05-03T10:22:23.374Z,16.11
2023-05-03T10:23:23.367Z,16.40
2023-05-03T10:24:23.351Z,16.55
2023-05-03T10:25:23.347Z,16.65
2023-05-03T10:26:23.329Z,16.77
2023-05-03T10:27:23.319Z,16.48
2023-05-03T10:28:23.460Z,16.22
2023-05-03T10:29:23.297Z,16.03
2023-05-03T10:30:23.296Z,15.84
2023-05-03T10:31:23.340Z,15.88
2023-05-03T10:32:23.287Z,15.84
2023-05-03T10:33:23.281Z,15.93
2023-05-03T10:34:23.238Z,15.95
2023-05-03T10:35:23.226Z,15.77
2023-05-03T10:36:23.213Z,15.52
2023-05-03T10:37:23.206Z,15.59
2023-05-03T10:38:23.329Z,15.53
2023-05-03T10:39:23.198Z,15.49
2023-05-03T10:40:23.179Z,15.55
2023-05-03T10:41:23.156Z,15.62
2023-05-03T10:42:23.153Z,15.64
2023-05-03T10:43:23.138Z,15.49
2023-05-03T10:44:23.126Z,15.41
2023-05-03T10:45:23.114Z,15.55
2023-05-03T10:46:23.167Z,15.67
2023-05-03T10:47:23.121Z,15.86
2023-05-03T10:48:23.076Z,16.92
2023-05-03T10:49:23.203Z,17.91
2023-05-03T10:50:23.317Z,19.12
2023-05-03T10:51:23.054Z,19.86
2023-05-03T10:52:23.041Z,20.57
2023-05-03T10:53:23.027Z,21.21
2023-05-03T10:54:23.143Z,21.96
2023-05-03T10:55:23.064Z,22.27
2023-05-03T10:56:23.048Z,22.46
2023-05-03T10:57:22.990Z,22.21
2023-05-03T10:58:22.972Z,21.77
2023-05-03T10:59:22.989Z,21.11
2023-05-03T11:00:23.213Z,20.85
2023-05-03T11:01:23.380Z,21.45
2023-05-03T11:02:23.104Z,21.33
2023-05-03T11:03:23.063Z,21.55
2023-05-03T11:04:23.110Z,22.01
2023-05-03T11:05:23.055Z,21.74
2023-05-03T11:06:22.951Z,22.31
2023-05-03T11:07:22.878Z,22.88
2023-05-03T11:08:22.996Z,22.72
2023-05-03T11:09:22.913Z,21.75
2023-05-03T11:10:22.838Z,21.22
2023-05-03T11:11:23.058Z,21.67
2023-05-03T11:12:23.060Z,21.99
2023-05-03T11:13:22.875Z,21.40
2023-05-03T11:14:23.097Z,21.13
2023-05-03T11:15:22.787Z,20.71
2023-05-03T11:16:23.012Z,20.37
2023-05-03T11:17:22.771Z,19.75
2023-05-03T11:18:23.024Z,19.34
2023-05-03T11:19:22.756Z,19.35
2023-05-03T11:20:22.736Z,18.86
2023-05-03T11:21:23.051Z,19.95
2023-05-03T11:22:23.006Z,20.00
2023-05-03T11:23:22.720Z,20.04
2023-05-03T11:24:22.976Z,19.82
2023-05-03T11:25:22.974Z,19.30
2023-05-03T11:26:22.663Z,19.27
2023-05-03T11:27:22.653Z,19.16
2023-05-03T11:28:22.678Z,18.76
2023-05-03T11:29:22.632Z,18.76
2023-05-03T11:30:22.625Z,18.74
2023-05-03T11:31:22.958Z,18.83
2023-05-03T11:32:22.728Z,19.30
2023-05-03T11:33:22.600Z,20.19
2023-05-03T11:34:22.572Z,20.75
2023-05-03T11:35:22.575Z,21.52
2023-05-03T11:36:22.605Z,21.79
2023-05-03T11:37:22.610Z,21.79
2023-05-03T11:38:22.537Z,21.40
2023-05-03T11:39:22.554Z,21.19
2023-05-03T11:40:22.521Z,21.75
2023-05-03T11:41:22.516Z,22.39
2023-05-03T11:42:22.493Z,22.41
2023-05-03T11:43:22.480Z,21.91
2023-05-03T11:44:22.479Z,21.33
2023-05-03T11:45:23.213Z,21.51
2023-05-03T11:46:22.629Z,21.75
2023-05-03T11:47:22.520Z,21.96
2023-05-03T11:48:22.579Z,22.36
2023-05-03T11:49:22.452Z,22.79
2023-05-03T11:50:22.410Z,22.74
2023-05-03T11:51:22.394Z,22.09
2023-05-03T11:52:22.434Z,21.21
2023-05-03T11:53:22.445Z,20.85
2023-05-03T11:54:26.428Z,20.64
2023-05-03T11:55:22.375Z,20.46
2023-05-03T11:56:22.345Z,20.01
2023-05-03T11:57:22.342Z,19.55
2023-05-03T11:58:22.343Z,19.31
2023-05-03T11:59:22.315Z,19.16
2023-05-03T12:00:22.301Z,19.38
2023-05-03T12:01:22.328Z,19.06
2023-05-03T12:02:22.325Z,18.90
2023-05-03T12:03:23.947Z,18.83
2023-05-03T12:04:22.471Z,19.16
2023-05-03T12:05:23.296Z,19.32
2023-05-03T12:06:22.480Z,19.60
2023-05-03T12:07:23.584Z,20.82
2023-05-03T12:08:23.154Z,21.74
2023-05-03T12:09:23.966Z,22.39
2023-05-03T12:10:25.682Z,22.27
2023-05-03T12:11:25.131Z,22.45
2023-05-03T12:13:24.348Z,22.57
2023-05-03T12:14:22.300Z,22.64
2023-05-03T12:15:22.556Z,23.00
2023-05-03T12:16:22.299Z,23.26
2023-05-03T12:17:22.352Z,23.90
2023-05-03T12:18:22.296Z,24.37
2023-05-03T12:19:23.368Z,25.07
2023-05-03T12:22:26.537Z,24.30
2023-05-03T12:23:22.508Z,24.00
2023-05-03T12:24:24.352Z,24.27
2023-05-03T12:25:25.654Z,24.36
2023-05-03T12:26:22.249Z,23.96
2023-05-03T12:27:23.736Z,23.64
2023-05-03T12:28:22.197Z,23.87
2023-05-03T12:29:23.803Z,24.24
2023-05-03T12:30:23.504Z,24.45
2023-05-03T12:31:22.958Z,24.52
2023-05-03T12:32:23.257Z,24.48
2023-05-03T12:33:22.945Z,24.52
2023-05-03T12:34:33.998Z,24.92
2023-05-03T12:35:23.644Z,25.30
2023-05-03T12:36:24.550Z,25.17
2023-05-03T12:37:22.577Z,24.68
2023-05-03T12:39:22.347Z,23.84
2023-05-03T12:40:33.250Z,23.21
2023-05-03T12:41:50.979Z,22.69
2023-05-03T12:42:23.211Z,22.17
2023-05-03T12:43:22.111Z,22.04
2023-05-03T12:45:22.372Z,22.04
2023-05-03T12:46:34.221Z,21.11
2023-05-03T12:47:28.453Z,20.58
2023-05-03T12:48:23.500Z,21.30
2023-05-03T12:49:23.518Z,21.68
2023-05-03T12:50:24.635Z,21.63
2023-05-03T12:51:25.972Z,22.42
2023-05-03T12:52:37.281Z,23.25
2023-05-03T12:53:25.786Z,23.64
2023-05-03T12:54:24.211Z,23.60
2023-05-03T12:55:25.023Z,24.05
2023-05-03T12:56:24.596Z,23.34
2023-05-03T12:57:23.594Z,23.25
2023-05-03T12:58:43.197Z,23.06
2023-05-03T13:00:25.468Z,22.44
2023-05-03T13:02:18.826Z,21.79
2023-05-03T13:03:22.724Z,21.56
2023-05-03T13:04:55.756Z,22.06
2023-05-03T13:05:33.643Z,22.46
2023-05-03T13:06:22.957Z,23.06
2023-05-03T13:07:27.949Z,23.44
2023-05-03T13:08:22.935Z,23.62
2023-05-03T13:09:24.571Z,23.56
2023-05-03T13:11:21.739Z,21.96
2023-05-03T13:12:21.575Z,22.42